createdAt,value
2018-03-31T00:00:00.707Z,90.10
2018-03-31T00:02:29.918Z,90.20
2018-03-31T00:04:59.136Z,90.40
2018-03-31T00:07:27.259Z,90.50
2018-03-31T00:09:56.136Z,90.40
2018-03-31T00:12:24.197Z,90.20
2018-03-31T00:14:53.152Z,90.30
2018-03-31T00:17:20.935Z,90.50
2018-03-31T00:19:48.707Z,90.30
2018-03-31T00:22:20.955Z,90.50
2018-03-31T00:24:49.391Z,90.30
2018-03-31T00:27:17.304Z,90.70
2018-03-31T00:29:47.323Z,90.50
2018-03-31T00:32:15.600Z,90.50
2018-03-31T00:34:47.880Z,90.30
2018-03-31T00:37:22.427Z,90.60
2018-03-31T00:39:51.970Z,90.90
2018-03-31T00:42:21.040Z,90.80
2018-03-31T00:44:49.190Z,90.80
2018-03-31T00:47:19.445Z,91.00
2018-03-31T00:49:48.410Z,90.90
2018-03-31T00:52:22.770Z,90.90
2018-03-31T00:54:59.996Z,91.00
2018-03-31T00:57:27.807Z,91.20
2018-03-31T00:59:56.552Z,91.50
2018-03-31T01:02:24.325Z,91.60
2018-03-31T01:04:54.943Z,91.80
2018-03-31T01:07:24.921Z,91.80
2018-03-31T01:09:59.239Z,92.30
2018-03-31T01:12:27.640Z,92.30
2018-03-31T01:14:56.240Z,92.30
2018-03-31T01:17:24.122Z,92.30
2018-03-31T01:19:51.790Z,92.30
2018-03-31T01:22:21.664Z,92.50
2018-03-31T01:24:49.705Z,92.40
2018-03-31T01:27:18.758Z,92.30
2018-03-31T01:29:50.928Z,92.60
2018-03-31T01:32:18.672Z,92.60
2018-03-31T01:34:46.470Z,92.60
2018-03-31T01:37:14.948Z,92.90
2018-03-31T01:39:48.142Z,93.00
2018-03-31T01:42:16.444Z,93.00
2018-03-31T01:44:44.629Z,92.90
2018-03-31T01:47:12.400Z,92.90
2018-03-31T01:49:44.817Z,93.10
2018-03-31T01:52:12.815Z,93.10
2018-03-31T01:54:41.910Z,93.10
2018-03-31T01:57:09.695Z,93.00
2018-03-31T01:59:37.524Z,93.10
2018-03-31T02:02:06.062Z,93.30
2018-03-31T02:04:33.990Z,93.30
2018-03-31T02:07:03.376Z,93.40
2018-03-31T02:09:31.032Z,93.40
2018-03-31T02:12:11.751Z,93.50
2018-03-31T02:14:50.092Z,93.50
2018-03-31T02:20:03.282Z,94.10
2018-03-31T02:22:31.204Z,94.00
2018-03-31T02:24:59.392Z,93.80
2018-03-31T02:27:28.709Z,93.80
2018-03-31T02:29:57.149Z,94.00
2018-03-31T02:32:25.324Z,94.10
2018-03-31T02:34:55.046Z,94.50
2018-03-31T02:37:23.696Z,94.40
2018-03-31T02:39:51.404Z,94.40
2018-03-31T02:42:19.713Z,94.40
2018-03-31T02:44:47.474Z,94.40
2018-03-31T02:47:16.077Z,94.20
2018-03-31T02:49:44.196Z,94.20
2018-03-31T02:52:12.520Z,94.20
2018-03-31T02:54:41.495Z,94.30
2018-03-31T02:57:09.530Z,94.60
2018-03-31T02:59:37.279Z,94.60
2018-03-31T03:02:20.115Z,94.70
2018-03-31T03:04:49.248Z,94.80
2018-03-31T03:07:21.146Z,94.90
2018-03-31T03:09:52.450Z,94.90
2018-03-31T03:12:21.007Z,95.20
2018-03-31T03:14:48.734Z,95.20
2018-03-31T03:17:16.946Z,95.10
2018-03-31T03:19:44.687Z,95.20
2018-03-31T03:22:13.140Z,95.30
2018-03-31T03:27:39.678Z,95.30
2018-03-31T03:30:08.113Z,95.40
2018-03-31T03:32:35.867Z,95.40
2018-03-31T03:35:03.771Z,95.40
2018-03-31T03:37:32.210Z,95.50
2018-03-31T03:40:00.388Z,95.50
2018-03-31T03:42:28.181Z,95.60
2018-03-31T03:44:56.056Z,95.70
2018-03-31T03:47:24.631Z,95.70
2018-03-31T03:49:52.376Z,95.70
2018-03-31T03:52:20.513Z,95.60
2018-03-31T03:54:48.204Z,95.50
2018-03-31T03:57:15.978Z,95.70
2018-03-31T03:59:44.282Z,95.80
2018-03-31T04:02:11.956Z,95.90
2018-03-31T04:04:40.537Z,95.80
2018-03-31T04:07:08.714Z,95.80
2018-03-31T04:09:37.173Z,95.70
2018-03-31T04:12:04.925Z,95.70
2018-03-31T04:14:33.431Z,95.40
2018-03-31T04:17:01.086Z,95.40
2018-03-31T04:19:28.706Z,95.50
2018-03-31T04:21:56.371Z,95.70
2018-03-31T04:24:24.992Z,95.80
2018-03-31T04:26:52.970Z,95.70
2018-03-31T04:29:20.758Z,95.80
2018-03-31T04:31:55.937Z,95.90
2018-03-31T04:34:30.020Z,95.80
2018-03-31T04:37:00.374Z,95.80
2018-03-31T04:39:28.187Z,95.80
2018-03-31T04:42:01.609Z,95.70
2018-03-31T04:44:33.500Z,95.70
2018-03-31T04:47:07.396Z,95.80
2018-03-31T04:49:40.712Z,95.90
2018-03-31T04:52:16.980Z,95.60
2018-03-31T04:54:53.290Z,95.60
2018-03-31T04:57:29.421Z,95.70
2018-03-31T04:59:57.726Z,95.60
2018-03-31T05:02:35.457Z,95.90
2018-03-31T05:05:13.555Z,95.80
2018-03-31T05:07:41.740Z,96.10
2018-03-31T05:10:09.606Z,96.00
2018-03-31T05:12:37.735Z,96.30
2018-03-31T05:15:10.043Z,96.50
2018-03-31T05:17:38.418Z,96.50
2018-03-31T05:20:07.821Z,96.80
2018-03-31T05:22:35.605Z,97.00
2018-03-31T05:25:11.101Z,97.20
2018-03-31T05:27:45.937Z,97.30
2018-03-31T05:30:21.115Z,97.20
2018-03-31T05:32:49.734Z,97.20
2018-03-31T05:35:18.014Z,97.00
2018-03-31T05:37:47.255Z,97.00
2018-03-31T05:40:19.071Z,97.10
2018-03-31T05:42:50.593Z,97.20
2018-03-31T05:45:23.683Z,97.60
2018-03-31T05:47:57.219Z,97.90
2018-03-31T05:50:26.248Z,97.90
2018-03-31T05:52:55.619Z,98.00
2018-03-31T05:55:24.540Z,98.10
2018-03-31T05:57:54.026Z,97.90
2018-03-31T06:00:23.662Z,97.90
2018-03-31T06:02:51.344Z,97.80
2018-03-31T06:05:18.998Z,97.70
2018-03-31T06:07:46.868Z,97.70
2018-03-31T06:10:15.089Z,97.40
2018-03-31T06:12:43.066Z,97.20
2018-03-31T06:15:11.544Z,96.60
2018-03-31T06:17:39.560Z,96.70
2018-03-31T06:20:07.288Z,96.60
2018-03-31T06:22:37.013Z,96.60
2018-03-31T06:25:04.684Z,96.60
2018-03-31T06:27:32.649Z,96.50
2018-03-31T06:30:00.480Z,96.40
2018-03-31T06:32:33.586Z,96.30
2018-03-31T06:35:03.080Z,96.30
2018-03-31T06:37:31.577Z,95.80
2018-03-31T06:39:59.323Z,95.80
2018-03-31T06:42:27.320Z,95.80
2018-03-31T06:44:55.143Z,95.90
2018-03-31T06:47:22.821Z,95.80
2018-03-31T06:49:51.094Z,95.50
2018-03-31T06:52:19.683Z,95.10
2018-03-31T06:54:48.425Z,95.20
2018-03-31T06:57:16.399Z,95.20
2018-03-31T06:59:44.287Z,95.10
2018-03-31T07:02:11.968Z,95.10
2018-03-31T07:04:41.428Z,94.60
2018-03-31T07:07:09.125Z,94.50
2018-03-31T07:09:37.511Z,93.80
2018-03-31T07:12:05.550Z,93.30
2018-03-31T07:14:33.464Z,92.80
2018-03-31T07:17:02.395Z,92.20
2018-03-31T07:19:30.547Z,92.20
2018-03-31T07:21:58.529Z,92.10
2018-03-31T07:24:26.444Z,92.30
2018-03-31T07:26:57.060Z,92.30
2018-03-31T07:29:28.024Z,91.90
2018-03-31T07:31:57.072Z,91.90
2018-03-31T07:34:25.617Z,91.50
2018-03-31T07:36:56.185Z,91.10
2018-03-31T07:39:24.003Z,90.50
2018-03-31T07:41:52.550Z,90.70
2018-03-31T07:44:20.422Z,90.70
2018-03-31T07:46:48.839Z,91.00
2018-03-31T07:49:17.529Z,90.80
2018-03-31T07:51:46.350Z,90.70
2018-03-31T07:54:14.107Z,90.70
2018-03-31T07:56:41.893Z,90.50
2018-03-31T07:59:10.179Z,90.70
2018-03-31T08:01:38.506Z,90.30
2018-03-31T08:04:06.291Z,90.10
2018-03-31T08:06:34.006Z,90.00
2018-03-31T08:09:03.213Z,90.10
2018-03-31T08:11:33.084Z,88.90
2018-03-31T08:14:02.537Z,88.30
2018-03-31T08:16:31.867Z,87.80
2018-03-31T08:19:01.115Z,88.30
2018-03-31T08:21:28.907Z,87.80
2018-03-31T08:23:56.689Z,85.90
2018-03-31T08:26:24.689Z,85.50
2018-03-31T08:28:52.328Z,85.00
2018-03-31T08:31:20.011Z,85.60
2018-03-31T08:33:50.812Z,86.30
2018-03-31T08:36:19.657Z,85.30
2018-03-31T08:38:52.815Z,83.90
2018-03-31T08:41:24.281Z,81.60
2018-03-31T08:43:56.483Z,79.10
2018-03-31T08:46:25.016Z,70.90
2018-03-31T08:48:52.823Z,70.90
2018-03-31T08:51:22.710Z,66.20
2018-03-31T08:53:52.236Z,62.50
2018-03-31T08:56:20.628Z,56.80
2018-03-31T08:58:49.032Z,52.60
2018-03-31T09:01:16.927Z,50.60
2018-03-31T09:03:44.637Z,51.10
2018-03-31T09:06:15.296Z,49.80
2018-03-31T09:08:43.958Z,51.10
2018-03-31T09:11:11.788Z,50.50
2018-03-31T09:13:44.110Z,50.40
2018-03-31T09:16:12.640Z,44.90
2018-03-31T09:18:40.358Z,44.90
2018-03-31T09:21:11.740Z,41.80
2018-03-31T09:23:40.589Z,41.30
2018-03-31T09:26:09.068Z,41.30
2018-03-31T09:28:37.314Z,40.00
2018-03-31T09:31:11.672Z,39.90
2018-03-31T09:33:39.650Z,37.70
2018-03-31T09:36:07.867Z,37.30
2018-03-31T09:38:36.014Z,36.30
2018-03-31T09:41:07.731Z,37.80
2018-03-31T09:43:37.661Z,37.00
2018-03-31T09:46:06.572Z,33.90
2018-03-31T09:48:35.642Z,33.80
2018-03-31T09:51:07.295Z,30.90
2018-03-31T09:53:40.878Z,30.50
2018-03-31T09:56:09.436Z,30.70
2018-03-31T09:58:37.280Z,30.00
2018-03-31T10:01:05.271Z,28.90
2018-03-31T10:03:33.225Z,29.30
2018-03-31T10:06:01.015Z,29.70
2018-03-31T10:08:31.269Z,30.20
2018-03-31T10:10:59.964Z,28.90
2018-03-31T10:13:27.797Z,28.90
2018-03-31T10:15:55.588Z,28.40
2018-03-31T10:18:24.010Z,27.10
2018-03-31T10:20:57.408Z,26.60
2018-03-31T10:23:28.874Z,28.30
2018-03-31T10:25:57.414Z,29.20
2018-03-31T10:28:28.173Z,28.00
2018-03-31T10:30:56.291Z,27.20
2018-03-31T10:33:24.274Z,27.80
2018-03-31T10:35:52.552Z,27.60
2018-03-31T10:38:20.821Z,29.00
2018-03-31T10:40:48.539Z,29.30
2018-03-31T10:43:17.063Z,28.10
2018-03-31T10:45:45.479Z,27.10
2018-03-31T10:48:13.359Z,25.90
2018-03-31T10:50:41.497Z,25.90
2018-03-31T10:53:09.583Z,26.10
2018-03-31T10:55:37.332Z,27.60
2018-03-31T10:58:06.318Z,29.20
2018-03-31T11:00:36.990Z,29.20
2018-03-31T11:03:06.116Z,30.60
2018-03-31T11:05:33.811Z,32.30
2018-03-31T11:08:02.489Z,31.50
2018-03-31T11:10:30.529Z,30.60
2018-03-31T11:12:58.221Z,29.70
2018-03-31T11:15:29.655Z,29.40
2018-03-31T11:18:01.888Z,31.10
2018-03-31T11:20:31.183Z,33.70
2018-03-31T11:23:02.179Z,35.90
2018-03-31T11:25:31.340Z,36.70
2018-03-31T11:28:00.337Z,36.80
2018-03-31T11:30:29.561Z,36.80
2018-03-31T11:32:58.883Z,37.00
2018-03-31T11:35:29.031Z,36.50
2018-03-31T11:37:59.580Z,36.50
2018-03-31T11:40:32.789Z,35.60
2018-03-31T11:43:03.393Z,33.70
2018-03-31T11:45:31.390Z,32.20
2018-03-31T11:47:59.851Z,31.60
2018-03-31T11:50:27.892Z,32.50
2018-03-31T11:52:56.307Z,34.30
2018-03-31T11:55:28.335Z,34.90
2018-03-31T11:57:56.332Z,32.10
2018-03-31T12:00:24.921Z,29.90
2018-03-31T12:02:57.474Z,29.40
2018-03-31T12:05:34.214Z,30.70
2018-03-31T12:08:02.349Z,29.60
2018-03-31T12:10:33.428Z,28.70
2018-03-31T12:13:06.006Z,28.30
2018-03-31T12:15:38.666Z,27.70
2018-03-31T12:18:17.175Z,27.10
2018-03-31T12:20:46.026Z,26.70
2018-03-31T12:23:16.778Z,26.70
2018-03-31T12:25:44.788Z,27.80
2018-03-31T12:28:12.718Z,28.90
2018-03-31T12:30:41.716Z,29.80
2018-03-31T12:33:13.075Z,33.30
2018-03-31T12:35:41.087Z,33.30
2018-03-31T12:38:08.775Z,35.50
2018-03-31T12:40:37.794Z,38.40
2018-03-31T12:43:11.985Z,38.40
2018-03-31T12:45:40.680Z,38.90
2018-03-31T12:48:20.301Z,37.30
2018-03-31T12:50:49.450Z,32.70
2018-03-31T12:53:19.748Z,30.50
2018-03-31T12:55:47.598Z,29.30
2018-03-31T12:58:16.478Z,28.60
2018-03-31T13:00:48.967Z,28.60
2018-03-31T13:03:18.123Z,28.10
2018-03-31T13:05:46.804Z,28.00
2018-03-31T13:08:15.567Z,27.20
2018-03-31T13:10:44.682Z,28.00
2018-03-31T13:13:13.827Z,27.90
2018-03-31T13:15:43.713Z,28.80
2018-03-31T13:18:11.563Z,29.10
2018-03-31T13:20:42.327Z,28.50
2018-03-31T13:23:12.136Z,27.10
2018-03-31T13:25:39.919Z,26.00
2018-03-31T13:28:10.522Z,25.70
2018-03-31T13:30:40.899Z,26.10
2018-03-31T13:33:15.284Z,26.40
2018-03-31T13:38:30.747Z,27.60
2018-03-31T13:40:59.037Z,28.90
2018-03-31T13:43:26.866Z,29.70
2018-03-31T13:45:57.246Z,30.60
2018-03-31T13:48:25.666Z,30.50
2018-03-31T13:50:53.463Z,33.50
2018-03-31T13:53:22.801Z,35.30
2018-03-31T13:55:52.267Z,36.30
2018-03-31T13:58:25.667Z,36.10
2018-03-31T14:01:01.509Z,34.10
2018-03-31T14:03:30.574Z,33.70
2018-03-31T14:05:58.966Z,33.70
2018-03-31T14:08:27.991Z,36.00
2018-03-31T14:10:58.611Z,36.00
2018-03-31T14:13:32.970Z,37.10
2018-03-31T14:16:09.417Z,37.80
2018-03-31T14:18:38.797Z,39.20
2018-03-31T14:21:06.773Z,39.20
2018-03-31T14:23:35.931Z,39.00
2018-03-31T14:26:04.660Z,38.80
2018-03-31T14:28:34.708Z,38.40
2018-03-31T14:31:03.160Z,38.40
2018-03-31T14:33:31.989Z,39.40
2018-03-31T14:36:02.029Z,39.00
2018-03-31T14:38:36.039Z,38.70
2018-03-31T14:41:06.120Z,39.10
2018-03-31T14:43:34.386Z,40.60
2018-03-31T14:46:02.541Z,40.30
2018-03-31T14:48:37.377Z,40.70
2018-03-31T14:51:13.583Z,41.00
2018-03-31T14:53:43.596Z,41.40
2018-03-31T14:56:27.595Z,42.30
2018-03-31T14:59:05.991Z,41.70
2018-03-31T15:01:40.475Z,43.20
2018-03-31T15:04:11.469Z,43.20
2018-03-31T15:06:49.684Z,43.50
2018-03-31T15:09:25.900Z,45.90
2018-03-31T15:11:56.278Z,45.30
2018-03-31T15:14:30.059Z,45.30
2018-03-31T15:16:58.208Z,45.90
2018-03-31T15:19:27.634Z,45.80
2018-03-31T15:21:56.847Z,45.30
2018-03-31T15:24:24.894Z,45.90
2018-03-31T15:26:58.609Z,45.20
2018-03-31T15:29:26.744Z,44.00
2018-03-31T15:31:55.290Z,43.70
2018-03-31T15:34:32.277Z,43.40
2018-03-31T15:37:00.401Z,42.30
2018-03-31T15:39:30.947Z,41.90
2018-03-31T15:42:21.036Z,41.70
2018-03-31T15:44:59.316Z,41.30
2018-03-31T15:47:30.311Z,39.50
2018-03-31T15:50:03.597Z,40.50
2018-03-31T15:52:33.190Z,40.50
2018-03-31T15:55:02.770Z,42.50
2018-03-31T15:57:39.189Z,42.50
2018-03-31T16:00:07.536Z,42.90
2018-03-31T16:02:36.127Z,42.70
2018-03-31T16:05:08.866Z,43.00
2018-03-31T16:07:39.041Z,42.80
2018-03-31T16:10:07.111Z,43.20
2018-03-31T16:12:35.816Z,43.60
2018-03-31T16:15:04.281Z,43.50
2018-03-31T16:17:32.966Z,45.50
2018-03-31T16:20:09.743Z,46.30
2018-03-31T16:22:40.936Z,46.10
2018-03-31T16:25:17.280Z,46.10
2018-03-31T16:27:50.476Z,46.40
2018-03-31T16:30:24.666Z,46.40
2018-03-31T16:32:53.027Z,46.80
2018-03-31T16:35:27.533Z,46.70
2018-03-31T16:37:55.590Z,46.50
2018-03-31T16:40:24.399Z,46.10
2018-03-31T16:42:58.019Z,45.40
2018-03-31T16:45:33.353Z,45.40
2018-03-31T16:48:02.164Z,44.10
2018-03-31T16:50:30.801Z,45.30
2018-03-31T16:53:02.861Z,45.30
2018-03-31T16:55:37.483Z,46.10
2018-03-31T16:58:07.282Z,46.20
2018-03-31T17:00:36.266Z,47.90
2018-03-31T17:03:04.293Z,47.80
2018-03-31T17:05:33.899Z,48.00
2018-03-31T17:08:01.775Z,48.00
2018-03-31T17:10:30.149Z,48.20
2018-03-31T17:13:00.188Z,49.10
2018-03-31T17:15:30.759Z,51.00
2018-03-31T17:17:59.375Z,50.90
2018-03-31T17:20:29.791Z,51.00
2018-03-31T17:22:57.910Z,51.80
2018-03-31T17:25:29.253Z,51.20
2018-03-31T17:27:57.436Z,51.20
2018-03-31T17:30:26.491Z,52.10
2018-03-31T17:32:55.112Z,52.00
2018-03-31T17:35:23.572Z,52.70
2018-03-31T17:37:51.692Z,52.70
2018-03-31T17:40:19.612Z,52.90
2018-03-31T17:42:48.233Z,52.90
2018-03-31T17:45:16.126Z,53.90
2018-03-31T17:47:44.443Z,53.50
2018-03-31T17:50:16.507Z,54.30
2018-03-31T17:52:51.189Z,53.60
2018-03-31T17:55:19.864Z,53.70
2018-03-31T17:57:48.975Z,53.60
2018-03-31T18:00:18.490Z,53.50
2018-03-31T18:02:53.020Z,54.40
2018-03-31T18:05:30.197Z,53.70
2018-03-31T18:08:00.844Z,54.10
2018-03-31T18:10:32.967Z,54.10
2018-03-31T18:13:01.357Z,53.90
2018-03-31T18:15:30.874Z,53.90
2018-03-31T18:17:59.778Z,53.60
2018-03-31T18:20:33.401Z,53.60
2018-03-31T18:23:03.107Z,53.50
2018-03-31T18:25:32.369Z,53.70
2018-03-31T18:28:00.733Z,53.10
2018-03-31T18:30:31.019Z,53.40
2018-03-31T18:32:59.918Z,54.20
2018-03-31T18:35:32.007Z,54.60
2018-03-31T18:38:00.859Z,54.70
2018-03-31T18:40:28.621Z,54.40
2018-03-31T18:42:57.738Z,55.10
2018-03-31T18:45:32.600Z,54.20
2018-03-31T18:48:03.080Z,55.10
2018-03-31T18:50:31.781Z,54.80
2018-03-31T18:52:59.958Z,54.70
2018-03-31T18:56:07.630Z,55.30
2018-03-31T18:58:37.271Z,55.50
2018-03-31T19:01:08.812Z,56.10
2018-03-31T19:03:38.812Z,56.10
2018-03-31T19:06:06.690Z,56.30
2018-03-31T19:08:35.547Z,56.70
2018-03-31T19:11:03.511Z,56.60
2018-03-31T19:13:31.514Z,56.30
2018-03-31T19:16:01.572Z,56.50
2018-03-31T19:18:29.753Z,56.40
2018-03-31T19:21:02.463Z,56.80
2018-03-31T19:23:41.128Z,57.10
2018-03-31T19:26:16.207Z,58.20
2018-03-31T19:28:49.682Z,60.60
2018-03-31T19:31:24.240Z,63.50
2018-03-31T19:33:53.097Z,65.00
2018-03-31T19:36:21.868Z,70.10
2018-03-31T19:38:50.942Z,72.70
2018-03-31T19:41:20.374Z,72.60
2018-03-31T19:43:53.774Z,76.00
2018-03-31T19:46:22.774Z,78.10
2018-03-31T19:48:50.489Z,78.10
2018-03-31T19:51:18.290Z,79.50
2018-03-31T19:53:47.302Z,81.30
2018-03-31T19:56:17.433Z,82.10
2018-03-31T19:58:45.629Z,83.30
2018-03-31T20:01:14.132Z,84.70
2018-03-31T20:03:46.303Z,87.40
2018-03-31T20:06:17.820Z,91.00
2018-03-31T20:08:49.452Z,93.00
2018-03-31T20:11:18.746Z,94.00
2018-03-31T20:13:47.721Z,94.40
2018-03-31T20:16:16.609Z,95.00
2018-03-31T20:18:44.658Z,95.80
2018-03-31T20:21:14.195Z,96.80
2018-03-31T20:23:43.698Z,97.50
2018-03-31T20:26:13.154Z,97.10
2018-03-31T20:28:41.248Z,97.10
2018-03-31T20:31:09.279Z,97.40
2018-03-31T20:33:40.927Z,98.40
2018-03-31T20:36:13.264Z,98.20
2018-03-31T20:38:47.804Z,98.40
2018-03-31T20:41:21.113Z,99.30
2018-03-31T20:43:53.002Z,99.30
2018-03-31T20:46:21.271Z,99.50
2018-03-31T20:48:53.837Z,99.40
2018-03-31T20:51:22.119Z,99.40
2018-03-31T20:53:52.425Z,99.90
2018-03-31T20:57:26.836Z,99.90
2018-03-31T20:59:56.749Z,99.50
2018-03-31T21:02:25.189Z,99.50
2018-03-31T21:04:54.970Z,99.90
2018-03-31T21:07:27.465Z,99.90
2018-03-31T21:09:59.739Z,99.90
2018-03-31T21:12:37.907Z,99.90
2018-03-31T21:18:47.233Z,99.90
2018-03-31T21:24:09.720Z,99.90
2018-03-31T21:26:40.004Z,99.90
2018-03-31T21:29:17.026Z,99.90
2018-03-31T21:31:52.800Z,99.70
2018-03-31T21:34:21.387Z,99.90
2018-03-31T21:36:52.180Z,99.60
2018-03-31T21:39:20.295Z,99.50
2018-03-31T21:41:49.307Z,99.90
2018-03-31T21:44:17.730Z,99.90
2018-03-31T21:46:50.753Z,99.90
2018-03-31T21:49:19.854Z,98.90
2018-03-31T21:51:48.305Z,98.90
2018-03-31T21:54:18.561Z,99.30
2018-03-31T21:56:46.602Z,99.00
2018-03-31T21:59:15.678Z,99.00
2018-03-31T22:01:48.118Z,98.70
2018-03-31T22:04:17.220Z,98.80
2018-03-31T22:06:48.811Z,99.10
2018-03-31T22:09:19.287Z,99.10
2018-03-31T22:11:48.671Z,98.50
2018-03-31T22:16:23.716Z,99.30
2018-03-31T22:18:52.881Z,98.90
2018-03-31T22:21:20.980Z,98.90
2018-03-31T22:23:50.596Z,99.50
2018-03-31T22:26:29.351Z,98.90
2018-03-31T22:29:05.711Z,98.90
2018-03-31T22:31:38.890Z,98.70
2018-03-31T22:34:07.263Z,98.80
2018-03-31T22:36:35.125Z,99.10
2018-03-31T22:39:03.583Z,99.50
2018-03-31T22:41:37.047Z,99.70
2018-03-31T22:44:07.897Z,99.60
2018-03-31T22:46:36.407Z,99.70
2018-03-31T22:49:08.285Z,99.80
2018-03-31T22:51:42.289Z,99.90
2018-03-31T22:54:16.793Z,99.90
2018-03-31T22:56:45.587Z,99.50
2018-03-31T22:59:13.660Z,99.50
2018-03-31T23:01:41.520Z,99.60
2018-03-31T23:04:11.216Z,99.50
2018-03-31T23:13:26.477Z,99.90
2018-03-31T23:15:54.422Z,99.90
2018-03-31T23:18:26.976Z,99.90
2018-03-31T23:20:54.858Z,99.90
2018-03-31T23:23:27.601Z,99.90
2018-03-31T23:26:02.569Z,99.90
2018-03-31T23:28:35.599Z,99.90
2018-03-31T23:31:10.170Z,99.90
2018-03-31T23:33:39.116Z,99.90
2018-03-31T23:36:11.490Z,99.90
2018-03-31T23:38:43.873Z,99.90
2018-03-31T23:41:12.740Z,99.90
2018-03-31T23:43:40.588Z,99.90
2018-03-31T23:46:12.469Z,99.80
2018-03-31T23:48:45.459Z,99.90
2018-03-31T23:51:17.920Z,99.90
2018-03-31T23:53:47.749Z,99.90
2018-03-31T23:56:23.458Z,99.90
2018-03-31T23:58:58.395Z,99.90
